Time;durP1;ratioP1;P1;durP2;ratioP2;P2;SDS_P1;SDS_P2;PMS_P1;PMS_P2;Temp;Humidity;BMP_temperature;BMP_pressure;BME280_temperature;BME280_humidity;BME280_pressure;Samples;Min_cycle;Max_cycle;Signal;HPM_P1;HPM_P2
2021/03/01 00:00:37;;;;;;;22.75;10.48;;;3.10;64.90;;;;;;5012145;28;20195;-68
2021/03/01 00:03:03;;;;;;;23.13;9.98;;;3.00;64.70;;;;;;5016477;28;20109;-69
2021/03/01 00:05:28;;;;;;;24.35;10.77;;;2.90;64.80;;;;;;5014764;28;20029;-68
2021/03/01 00:07:54;;;;;;;23.45;10.02;;;2.90;64.90;;;;;;5016822;28;20463;-71
2021/03/01 00:10:20;;;;;;;22.70;9.80;;;2.80;64.90;;;;;;5017082;28;20029;-70
2021/03/01 00:12:46;;;;;;;18.95;9.57;;;2.80;65.00;;;;;;5016280;28;20060;-70
2021/03/01 00:15:15;;;;;;;20.70;10.23;;;2.70;65.00;;;;;;5015820;28;20029;-70
2021/03/01 00:17:41;;;;;;;20.65;9.50;;;2.60;65.00;;;;;;5017537;28;20041;-70
2021/03/01 00:20:12;;;;;;;25.20;11.52;;;2.60;65.20;;;;;;5016410;28;20041;-71
2021/03/01 00:22:39;;;;;;;21.77;10.18;;;2.50;65.30;;;;;;5021356;28;20370;-68
2021/03/01 00:25:06;;;;;;;20.85;9.73;;;2.50;65.30;;;;;;5026652;28;20063;-68
2021/03/01 00:27:31;;;;;;;21.63;10.10;;;2.50;65.40;;;;;;5027433;28;20026;-69
2021/03/01 00:29:57;;;;;;;21.60;10.85;;;2.40;65.40;;;;;;5025584;28;20028;-70
2021/03/01 00:32:23;;;;;;;25.20;10.23;;;2.40;65.50;;;;;;5018366;28;20449;-69
2021/03/01 00:34:48;;;;;;;20.10;9.77;;;2.40;65.60;;;;;;5022029;28;20393;-69
2021/03/01 00:37:14;;;;;;;22.45;10.10;;;2.40;65.70;;;;;;5022595;28;20033;-69
2021/03/01 00:39:40;;;;;;;20.77;10.07;;;2.40;65.80;;;;;;5022680;28;20499;-69
2021/03/01 00:42:05;;;;;;;20.17;9.30;;;2.40;65.80;;;;;;5021212;28;20036;-69
2021/03/01 00:44:31;;;;;;;28.08;11.30;;;2.40;65.80;;;;;;5021626;28;20032;-69
2021/03/01 00:46:57;;;;;;;21.13;9.02;;;2.40;65.80;;;;;;5022035;28;20412;-69
2021/03/01 00:49:22;;;;;;;21.27;9.48;;;2.40;65.90;;;;;;5022102;28;20022;-70
2021/03/01 00:51:48;;;;;;;19.85;9.50;;;2.40;66.00;;;;;;5020599;28;20501;-70
2021/03/01 00:54:14;;;;;;;20.13;9.45;;;2.40;66.00;;;;;;5023466;28;20056;-70
2021/03/01 00:56:39;;;;;;;21.20;9.88;;;2.50;66.10;;;;;;5021145;28;20033;-69
2021/03/01 00:59:05;;;;;;;17.20;8.25;;;2.50;66.00;;;;;;5020130;28;20045;-68
2021/03/01 01:01:31;;;;;;;20.30;8.57;;;2.50;66.10;;;;;;5018278;28;20083;-69
2021/03/01 01:03:56;;;;;;;19.10;9.25;;;2.50;66.20;;;;;;5028585;28;20033;-68
2021/03/01 01:06:22;;;;;;;26.52;10.27;;;2.60;66.30;;;;;;5022527;28;20052;-69
2021/03/01 01:08:47;;;;;;;20.85;10.43;;;2.60;66.20;;;;;;5021963;28;20030;-71
2021/03/01 01:11:13;;;;;;;19.17;9.45;;;2.60;66.00;;;;;;5022466;28;20029;-68
2021/03/01 01:13:39;;;;;;;21.60;10.07;;;2.60;65.80;;;;;;5021460;28;20029;-68
2021/03/01 01:16:05;;;;;;;23.75;9.55;;;2.50;65.90;;;;;;5022647;28;20037;-69
2021/03/01 01:18:30;;;;;;;18.48;9.68;;;2.40;66.00;;;;;;5021505;28;20029;-70
2021/03/01 01:20:56;;;;;;;20.77;9.73;;;2.40;66.20;;;;;;5022783;28;20032;-70
2021/03/01 01:23:22;;;;;;;19.55;9.15;;;2.30;66.20;;;;;;5022589;28;20035;-68
2021/03/01 01:25:47;;;;;;;21.00;10.75;;;2.30;66.30;;;;;;5021882;28;20072;-71
2021/03/01 01:28:13;;;;;;;20.85;10.73;;;2.20;66.20;;;;;;5021431;28;20032;-69
2021/03/01 01:30:39;;;;;;;21.48;10.27;;;2.20;66.30;;;;;;5021213;28;20048;-70
2021/03/01 01:33:05;;;;;;;19.98;10.27;;;2.10;66.20;;;;;;5020256;28;20132;-69
2021/03/01 01:35:31;;;;;;;18.00;10.05;;;2.00;66.30;;;;;;5035313;28;20030;-69
2021/03/01 01:37:56;;;;;;;20.25;10.20;;;2.00;66.50;;;;;;5017629;28;20503;-69
2021/03/01 01:40:23;;;;;;;19.00;10.13;;;1.90;66.50;;;;;;5018224;28;20397;-69
2021/03/01 01:42:50;;;;;;;19.20;9.50;;;1.90;66.60;;;;;;5019957;28;20124;-70
2021/03/01 01:45:21;;;;;;;23.23;10.27;;;1.80;66.60;;;;;;5017523;28;20033;-71
2021/03/01 01:47:49;;;;;;;19.87;9.77;;;1.80;66.80;;;;;;5020014;28;20028;-70
2021/03/01 01:50:17;;;;;;;19.83;9.85;;;1.80;66.80;;;;;;5018157;28;20624;-69
2021/03/01 01:52:43;;;;;;;19.67;9.85;;;1.70;66.80;;;;;;5019711;28;20441;-70
2021/03/01 01:55:10;;;;;;;18.80;9.65;;;1.70;67.00;;;;;;5019736;28;20022;-70
2021/03/01 01:57:36;;;;;;;20.98;9.77;;;1.70;67.60;;;;;;5018133;28;20021;-71
2021/03/01 02:00:28;;;;;;;22.95;9.35;;;1.70;67.00;;;;;;5014856;28;20053;-68
2021/03/01 02:03:06;;;;;;;22.20;9.73;;;1.70;67.00;;;;;;5018999;28;20037;-70
2021/03/01 02:05:33;;;;;;;18.13;9.35;;;1.70;66.90;;;;;;5038979;28;20021;-70
2021/03/01 02:08:19;;;;;;;19.17;9.63;;;1.80;66.80;;;;;;5018731;28;20427;-71
2021/03/01 02:10:53;;;;;;;18.85;9.38;;;1.80;66.90;;;;;;5019312;28;20025;-70
2021/03/01 02:13:48;;;;;;;18.45;8.75;;;1.80;66.80;;;;;;5019374;28;20460;-68
2021/03/01 02:16:20;;;;;;;16.15;8.55;;;1.90;66.90;;;;;;5019041;28;20465;-71
2021/03/01 02:18:45;;;;;;;19.02;8.95;;;1.80;66.60;;;;;;5018152;28;20029;-70
2021/03/01 02:21:13;;;;;;;21.45;9.70;;;1.80;66.50;;;;;;5016457;28;20640;-70
2021/03/01 02:23:39;;;;;;;20.65;9.05;;;1.80;66.70;;;;;;5016723;28;20021;-70
2021/03/01 02:26:18;;;;;;;19.02;9.30;;;1.80;66.70;;;;;;5016038;28;20053;-70
2021/03/01 02:28:48;;;;;;;22.70;9.57;;;1.90;66.80;;;;;;5017541;28;20021;-69
2021/03/01 02:31:15;;;;;;;18.63;9.68;;;1.80;66.60;;;;;;5016430;28;20053;-69
2021/03/01 02:33:46;;;;;;;20.13;9.85;;;1.80;66.70;;;;;;5017004;28;20453;-70
2021/03/01 02:36:20;;;;;;;18.38;10.00;;;1.70;66.70;;;;;;5015890;28;20523;-71
2021/03/01 02:38:48;;;;;;;23.20;9.77;;;1.70;66.80;;;;;;5015128;28;20037;-70
2021/03/01 02:41:15;;;;;;;18.27;8.85;;;1.70;66.80;;;;;;5024219;28;20029;-70
2021/03/01 02:43:42;;;;;;;20.17;9.05;;;1.70;66.90;;;;;;5016471;28;20017;-70
2021/03/01 02:46:10;;;;;;;20.90;10.13;;;1.60;66.90;;;;;;5015914;28;20104;-70
2021/03/01 02:48:40;;;;;;;20.63;10.35;;;1.60;66.80;;;;;;5016201;28;20017;-68
2021/03/01 02:51:07;;;;;;;19.58;9.68;;;1.60;66.90;;;;;;5013341;28;20095;-70
2021/03/01 02:53:35;;;;;;;22.75;11.13;;;1.60;67.00;;;;;;5015269;28;20025;-68
2021/03/01 02:56:02;;;;;;;17.25;10.00;;;1.60;67.60;;;;;;5015762;28;20061;-70
2021/03/01 02:58:33;;;;;;;20.70;10.90;;;1.50;66.90;;;;;;5015794;28;20036;-70
2021/03/01 03:01:00;;;;;;;21.20;10.90;;;1.40;67.10;;;;;;5010951;28;20036;-69
2021/03/01 03:03:28;;;;;;;23.42;10.73;;;1.30;67.10;;;;;;5014842;28;20080;-70
2021/03/01 03:05:54;;;;;;;22.30;11.10;;;1.30;67.10;;;;;;5012608;28;20091;-70
2021/03/01 03:08:21;;;;;;;20.55;10.57;;;1.20;67.20;;;;;;5013369;28;20112;-70
2021/03/01 03:10:49;;;;;;;20.50;11.02;;;1.10;67.50;;;;;;5014158;28;20029;-69
2021/03/01 03:13:16;;;;;;;22.88;11.93;;;1.10;67.80;;;;;;5014961;28;20037;-68
2021/03/01 03:15:44;;;;;;;22.08;10.27;;;1.10;67.80;;;;;;5014567;28;20033;-70
2021/03/01 03:18:11;;;;;;;22.52;11.48;;;1.10;67.70;;;;;;5013884;28;20030;-70
2021/03/01 03:20:37;;;;;;;20.75;11.23;;;1.10;67.70;;;;;;5012672;28;20409;-69
2021/03/01 03:23:04;;;;;;;23.52;11.10;;;1.10;67.70;;;;;;5013693;28;20079;-70
2021/03/01 03:25:29;;;;;;;21.27;10.52;;;1.10;67.80;;;;;;5013307;28;20021;-69
2021/03/01 03:27:55;;;;;;;19.38;10.88;;;1.10;67.90;;;;;;5014529;28;20037;-70
2021/03/01 03:30:22;;;;;;;20.48;10.32;;;1.20;68.10;;;;;;5013298;28;20577;-70
2021/03/01 03:32:49;;;;;;;20.45;10.38;;;1.20;68.00;;;;;;5013432;28;20032;-70
2021/03/01 03:35:15;;;;;;;18.40;9.70;;;1.20;67.90;;;;;;5014729;28;20033;-70
2021/03/01 03:37:53;;;;;;;24.17;11.20;;;1.20;67.70;;;;;;5034120;28;20026;-70
2021/03/01 03:40:20;;;;;;;17.40;9.73;;;1.20;67.80;;;;;;5015381;28;20026;-68
2021/03/01 03:42:47;;;;;;;20.83;10.75;;;1.20;67.60;;;;;;5014320;28;20037;-69
2021/03/01 03:45:16;;;;;;;20.83;10.23;;;1.20;67.70;;;;;;5015278;28;20049;-70
2021/03/01 03:47:44;;;;;;;21.73;10.90;;;1.20;67.90;;;;;;5014219;28;20386;-70
2021/03/01 03:50:11;;;;;;;20.95;11.23;;;1.20;67.80;;;;;;5015774;28;20036;-69
2021/03/01 03:52:41;;;;;;;21.73;10.90;;;1.10;67.80;;;;;;5014195;28;20030;-70
2021/03/01 03:55:11;;;;;;;22.38;10.95;;;1.20;68.00;;;;;;5013033;28;20374;-69
2021/03/01 03:57:39;;;;;;;20.80;10.75;;;1.20;68.00;;;;;;5014912;28;20120;-72
2021/03/01 04:00:11;;;;;;;20.52;11.23;;;1.20;68.00;;;;;;5012833;28;20056;-72
2021/03/01 04:02:40;;;;;;;22.00;9.77;;;1.20;68.10;;;;;;5013916;28;20056;-71
2021/03/01 04:05:08;;;;;;;20.67;10.38;;;1.10;68.00;;;;;;5016134;28;20379;-70
2021/03/01 04:07:36;;;;;;;22.80;10.63;;;1.10;67.90;;;;;;5013777;28;20030;-71
2021/03/01 04:10:05;;;;;;;21.65;10.20;;;1.10;67.90;;;;;;5014513;28;20362;-69
2021/03/01 04:12:33;;;;;;;22.88;11.00;;;1.10;68.10;;;;;;5014088;28;20025;-71
2021/03/01 04:14:59;;;;;;;19.52;10.25;;;1.10;68.20;;;;;;5015804;28;20029;-69
2021/03/01 04:17:27;;;;;;;23.90;10.55;;;1.10;68.30;;;;;;5015107;28;20398;-69
2021/03/01 04:19:56;;;;;;;22.77;11.70;;;1.10;68.30;;;;;;5015571;28;20136;-70
2021/03/01 04:22:24;;;;;;;22.23;11.32;;;1.10;68.30;;;;;;5012778;28;20022;-70
2021/03/01 04:24:50;;;;;;;23.02;11.30;;;1.10;68.30;;;;;;5013276;28;20029;-70
2021/03/01 04:27:17;;;;;;;19.63;10.27;;;1.10;68.20;;;;;;5044388;23;20126;-91
2021/03/01 04:29:43;;;;;;;20.17;10.18;;;1.10;68.10;;;;;;5022629;28;20473;-89
2021/03/01 04:32:10;;;;;;;20.67;10.40;;;1.10;68.10;;;;;;5023030;28;20021;-90
2021/03/01 04:34:37;;;;;;;21.60;9.57;;;1.00;68.10;;;;;;4999366;28;20532;-90
2021/03/01 04:37:03;;;;;;;21.73;10.57;;;1.00;68.70;;;;;;5014472;28;20061;-91
2021/03/01 04:39:29;;;;;;;21.63;9.70;;;1.00;68.20;;;;;;5014073;28;20025;-90
2021/03/01 04:41:55;;;;;;;18.00;9.10;;;1.00;68.30;;;;;;5020134;28;20099;-90
2021/03/01 04:44:22;;;;;;;19.77;9.23;;;1.00;68.30;;;;;;5020958;28;20045;-91
2021/03/01 04:46:53;;;;;;;20.15;9.40;;;1.00;68.40;;;;;;5018646;28;20088;-90
2021/03/01 04:49:21;;;;;;;19.50;9.02;;;1.00;68.30;;;;;;5029615;28;20021;-91
2021/03/01 04:51:54;;;;;;;25.88;10.73;;;1.00;68.20;;;;;;5013232;28;20098;-90
2021/03/01 04:54:22;;;;;;;24.83;10.60;;;1.00;68.10;;;;;;5026707;28;20060;-90
2021/03/01 04:56:49;;;;;;;19.58;9.65;;;0.90;68.00;;;;;;5032948;28;20034;-91
2021/03/01 04:59:16;;;;;;;20.27;9.88;;;0.80;68.10;;;;;;5016650;28;20037;-91
2021/03/01 05:01:45;;;;;;;21.40;9.50;;;0.70;68.10;;;;;;5018302;28;20094;-90
2021/03/01 05:04:12;;;;;;;21.42;9.82;;;0.70;68.30;;;;;;5012911;28;20042;-91
2021/03/01 05:06:41;;;;;;;20.10;8.55;;;0.70;68.40;;;;;;5013532;28;20071;-90
2021/03/01 05:09:09;;;;;;;18.95;9.10;;;0.70;68.40;;;;;;5018660;28;20025;-90
2021/03/01 05:11:37;;;;;;;20.40;9.07;;;0.70;68.40;;;;;;5018416;28;20021;-90
2021/03/01 05:14:05;;;;;;;17.05;8.57;;;0.70;68.60;;;;;;5028099;28;20033;-90
2021/03/01 05:16:30;;;;;;;16.30;8.20;;;0.70;68.50;;;;;;5018936;28;20037;-91
2021/03/01 05:18:57;;;;;;;17.88;8.55;;;0.70;68.60;;;;;;5015910;28;20036;-90
2021/03/01 05:21:23;;;;;;;19.52;8.93;;;0.70;68.50;;;;;;5015382;28;20053;-90
2021/03/01 05:23:53;;;;;;;19.55;9.52;;;0.70;68.40;;;;;;5017660;28;20486;-93
2021/03/01 05:26:19;;;;;;;17.83;8.30;;;0.70;68.50;;;;;;5011418;28;20090;-90
2021/03/01 05:28:46;;;;;;;19.73;8.55;;;0.70;68.40;;;;;;5016473;28;20571;-90
2021/03/01 05:31:14;;;;;;;21.92;8.85;;;0.70;68.40;;;;;;5021081;28;20029;-90
2021/03/01 05:33:40;;;;;;;17.90;8.88;;;0.60;68.40;;;;;;5018917;28;20030;-91
2021/03/01 05:36:15;;;;;;;16.60;8.55;;;0.60;68.60;;;;;;5003144;28;20508;-91
2021/03/01 05:38:40;;;;;;;17.98;8.13;;;0.60;68.60;;;;;;5017986;28;20041;-91
2021/03/01 05:41:08;;;;;;;17.08;8.95;;;0.60;69.20;;;;;;5017552;28;20039;-91
2021/03/01 05:43:35;;;;;;;18.90;8.98;;;0.60;68.70;;;;;;5015636;28;20021;-91
2021/03/01 05:46:01;;;;;;;18.77;8.63;;;0.60;68.70;;;;;;5009828;28;20033;-91
2021/03/01 05:48:29;;;;;;;16.20;7.95;;;0.60;68.70;;;;;;5018109;28;20561;-90
2021/03/01 05:50:57;;;;;;;18.13;8.50;;;0.70;68.80;;;;;;5018096;28;20037;-90
2021/03/01 05:53:28;;;;;;;20.30;9.07;;;0.70;68.80;;;;;;5017620;28;20033;-91
2021/03/01 05:56:00;;;;;;;16.15;8.10;;;0.70;68.90;;;;;;5013833;28;20513;-91
2021/03/01 05:58:27;;;;;;;;;;;0.80;68.90;;;;;;5011769;28;20056;-91
2021/03/01 06:01:20;;;;;;;16.48;7.57;;;0.80;68.40;;;;;;5016855;28;19913;-91
2021/03/01 06:03:56;;;;;;;18.83;8.88;;;0.80;68.50;;;;;;5017103;28;20453;-90
2021/03/01 06:06:25;;;;;;;19.65;9.60;;;0.80;68.40;;;;;;5015591;28;20053;-91
2021/03/01 06:08:53;;;;;;;16.98;8.70;;;0.80;68.40;;;;;;4998406;28;20026;-91
2021/03/01 06:11:19;;;;;;;23.20;8.75;;;0.80;68.50;;;;;;5003561;28;20552;-91
2021/03/01 06:13:45;;;;;;;17.23;8.38;;;0.80;68.50;;;;;;4998073;28;20033;-90
2021/03/01 06:16:10;;;;;;;18.80;8.63;;;0.80;68.60;;;;;;5018094;28;20026;-90
2021/03/01 06:18:46;;;;;;;16.42;8.07;;;0.80;68.60;;;;;;5018048;28;20025;-91
2021/03/01 06:21:17;;;;;;;18.10;8.63;;;0.80;68.70;;;;;;5017047;28;20036;-91
2021/03/01 06:23:47;;;;;;;19.13;9.10;;;0.70;68.60;;;;;;5018303;28;20029;-91
2021/03/01 06:26:31;;;;;;;16.35;8.75;;;0.70;68.60;;;;;;5015330;28;20043;-93
2021/03/01 06:29:03;;;;;;;16.75;8.95;;;0.80;68.80;;;;;;5018702;28;20030;-90
2021/03/01 06:31:46;;;;;;;16.20;8.65;;;0.80;68.80;;;;;;5018507;28;20116;-91
2021/03/01 06:34:24;;;;;;;16.10;8.88;;;0.80;68.80;;;;;;5016554;28;20079;-91
2021/03/01 06:37:07;;;;;;;20.05;9.98;;;0.80;68.80;;;;;;5017158;28;20367;-91
2021/03/01 06:39:47;;;;;;;19.45;9.35;;;0.80;68.80;;;;;;5016850;28;20030;-90
2021/03/01 06:42:16;;;;;;;18.95;8.73;;;1.10;68.60;;;;;;5016395;28;20029;-90
2021/03/01 06:44:47;;;;;;;24.90;9.55;;;1.40;68.10;;;;;;5020207;28;20036;-91
2021/03/01 06:47:16;;;;;;;18.13;9.00;;;1.70;67.90;;;;;;5037261;28;20057;-91
2021/03/01 06:49:44;;;;;;;16.10;8.98;;;2.00;67.70;;;;;;5018750;28;20029;-91
2021/03/01 06:52:33;;;;;;;17.25;9.20;;;2.40;67.20;;;;;;5016422;28;20095;-90
2021/03/01 06:55:12;;;;;;;19.52;9.02;;;2.60;66.80;;;;;;5016921;28;20026;-90
2021/03/01 06:57:38;;;;;;;17.63;8.38;;;2.90;66.70;;;;;;5013495;28;20049;-92
2021/03/01 07:00:06;;;;;;;15.52;8.02;;;3.20;66.30;;;;;;5018959;28;20021;-91
2021/03/01 07:02:41;;;;;;;16.63;9.00;;;3.40;66.20;;;;;;5001120;28;20057;-91
2021/03/01 07:05:08;;;;;;;14.52;8.20;;;3.60;66.10;;;;;;4997800;28;20079;-89
2021/03/01 07:07:38;;;;;;;15.43;8.40;;;3.80;65.70;;;;;;5026595;28;20029;-89
2021/03/01 07:10:06;;;;;;;15.20;8.73;;;4.00;65.60;;;;;;5034963;28;20029;-90
2021/03/01 07:12:51;;;;;;;14.80;8.43;;;4.20;65.60;;;;;;5005110;28;20034;-90
2021/03/01 07:15:17;;;;;;;18.55;8.55;;;4.20;65.60;;;;;;4997392;28;20022;-90
2021/03/01 07:17:44;;;;;;;16.63;8.68;;;4.30;65.50;;;;;;5016485;28;20087;-91
2021/03/01 07:20:16;;;;;;;16.02;8.43;;;4.40;65.40;;;;;;5014149;28;20053;-91
2021/03/01 07:22:44;;;;;;;14.88;8.55;;;4.70;65.10;;;;;;5017200;28;20025;-92
2021/03/01 07:25:13;;;;;;;12.40;8.07;;;5.00;65.00;;;;;;5016284;28;20076;-91
2021/03/01 07:27:41;;;;;;;14.35;8.02;;;5.30;64.80;;;;;;5008805;28;20093;-91
2021/03/01 07:30:10;;;;;;;12.55;8.15;;;5.40;64.60;;;;;;5016732;28;20087;-92
2021/03/01 07:32:37;;;;;;;16.08;8.18;;;5.60;64.50;;;;;;5015224;28;20123;-91
2021/03/01 07:35:07;;;;;;;14.27;9.05;;;5.80;63.60;;;;;;5016255;28;20057;-91
2021/03/01 07:37:37;;;;;;;12.20;8.20;;;6.10;63.30;;;;;;5017428;28;20103;-91
2021/03/01 07:40:08;;;;;;;13.25;8.30;;;6.50;62.90;;;;;;5016962;28;20072;-92
2021/03/01 07:42:38;;;;;;;15.68;8.15;;;6.80;62.80;;;;;;5016463;28;20067;-91
2021/03/01 07:45:06;;;;;;;12.35;8.55;;;7.10;62.30;;;;;;5005992;28;20061;-91
2021/03/01 07:47:32;;;;;;;10.50;7.40;;;7.30;62.00;;;;;;5037369;28;20021;-92
2021/03/01 07:49:58;;;;;;;16.00;8.95;;;7.60;61.50;;;;;;5029764;28;20099;-93
2021/03/01 07:52:31;;;;;;;13.07;8.90;;;7.80;60.80;;;;;;5016204;28;20025;-91
2021/03/01 07:55:13;;;;;;;12.50;8.70;;;8.20;60.40;;;;;;5017426;28;20025;-92
2021/03/01 07:57:40;;;;;;;17.48;9.32;;;8.50;60.10;;;;;;5009035;28;20300;-92
2021/03/01 08:00:25;;;;;;;13.30;8.80;;;9.00;59.80;;;;;;5016365;28;20033;-92
2021/03/01 08:02:51;;;;;;;10.90;7.50;;;9.30;58.90;;;;;;5002978;28;20075;-90
2021/03/01 08:05:30;;;;;;;11.13;8.45;;;9.40;58.70;;;;;;5019725;28;20021;-92
2021/03/01 08:07:56;;;;;;;11.32;8.50;;;9.80;58.40;;;;;;5022804;28;20401;-91
2021/03/01 08:10:31;;;;;;;12.00;8.95;;;10.30;57.60;;;;;;5026640;28;20037;-92
2021/03/01 08:12:58;;;;;;;12.43;8.80;;;10.70;56.90;;;;;;5022172;28;20026;-90
2021/03/01 08:15:30;;;;;;;12.75;8.75;;;11.10;56.40;;;;;;5018541;28;20028;-92
2021/03/01 08:17:56;;;;;;;11.90;8.95;;;11.40;55.90;;;;;;5014390;28;20026;-90
2021/03/01 08:20:31;;;;;;;12.85;8.60;;;11.70;55.70;;;;;;5013379;28;20044;-90
2021/03/01 08:23:10;;;;;;;12.60;9.27;;;11.50;55.40;;;;;;5017607;28;20029;-92
2021/03/01 08:25:46;;;;;;;12.00;8.68;;;11.30;55.30;;;;;;5021450;23;20048;-69
2021/03/01 08:28:17;;;;;;;12.80;8.95;;;11.10;56.00;;;;;;5008054;28;20034;-69
2021/03/01 08:31:09;;;;;;;11.15;8.55;;;10.90;56.40;;;;;;5009585;28;20022;-70
2021/03/01 08:33:36;;;;;;;11.63;8.23;;;10.70;56.60;;;;;;4988586;28;20022;-71
2021/03/01 08:36:01;;;;;;;14.05;7.97;;;10.70;57.00;;;;;;5008952;28;20512;-70
2021/03/01 08:38:42;;;;;;;11.70;8.10;;;10.70;57.10;;;;;;5004932;28;20113;-69
2021/03/01 08:41:09;;;;;;;10.40;7.43;;;10.60;57.00;;;;;;5009501;28;20091;-68
2021/03/01 08:43:40;;;;;;;11.13;7.65;;;10.60;56.70;;;;;;5010021;28;20076;-69
2021/03/01 08:46:08;;;;;;;13.27;7.60;;;10.50;56.50;;;;;;4994128;28;20411;-69
2021/03/01 08:48:46;;;;;;;11.35;7.55;;;10.50;56.60;;;;;;5013126;28;20398;-69
2021/03/01 08:51:12;;;;;;;13.48;7.60;;;10.50;56.40;;;;;;5002493;28;20170;-68
2021/03/01 08:53:38;;;;;;;12.15;8.00;;;10.50;56.40;;;;;;5013166;28;20079;-70
2021/03/01 08:56:04;;;;;;;11.13;7.70;;;10.60;56.40;;;;;;5013244;28;20096;-68
2021/03/01 08:58:35;;;;;;;13.02;7.57;;;10.60;56.20;;;;;;5012907;28;20034;-69
2021/03/01 09:01:07;;;;;;;13.73;7.15;;;10.60;56.00;;;;;;5012479;28;20077;-68
2021/03/01 09:03:34;;;;;;;14.20;7.85;;;10.70;56.10;;;;;;5013152;28;20117;-69
2021/03/01 09:06:10;;;;;;;11.70;7.32;;;10.70;55.90;;;;;;5012409;28;20026;-68
2021/03/01 09:08:42;;;;;;;11.30;7.57;;;10.70;55.80;;;;;;5011929;28;20049;-69
2021/03/01 09:11:14;;;;;;;11.75;7.50;;;10.80;56.00;;;;;;5002989;28;20030;-69
2021/03/01 09:13:42;;;;;;;12.90;7.75;;;11.00;56.10;;;;;;4996188;28;20026;-68
2021/03/01 09:16:11;;;;;;;12.90;7.53;;;11.10;55.90;;;;;;5006211;28;20029;-69
2021/03/01 09:18:38;;;;;;;10.27;7.22;;;11.30;55.70;;;;;;5013066;28;20482;-69
2021/03/01 09:21:05;;;;;;;11.23;7.40;;;11.40;55.50;;;;;;5012206;28;20033;-69
2021/03/01 09:23:41;;;;;;;11.07;7.18;;;11.50;55.00;;;;;;5013003;28;20018;-69
2021/03/01 09:26:16;;;;;;;10.90;6.85;;;11.50;54.50;;;;;;5012657;28;20077;-69
2021/03/01 09:28:42;;;;;;;10.05;6.88;;;11.50;54.80;;;;;;5006643;28;20492;-69
2021/03/01 09:31:13;;;;;;;12.70;6.85;;;11.60;54.90;;;;;;5012749;28;20077;-69
2021/03/01 09:33:40;;;;;;;9.85;7.05;;;11.80;54.50;;;;;;5012645;28;20042;-70
2021/03/01 09:36:07;;;;;;;9.75;6.45;;;11.80;54.50;;;;;;5011782;28;20034;-69
2021/03/01 09:38:34;;;;;;;10.45;6.68;;;11.90;54.20;;;;;;5012720;28;20029;-69
2021/03/01 09:41:03;;;;;;;9.90;6.28;;;12.00;54.00;;;;;;5012525;28;20030;-69
2021/03/01 09:43:29;;;;;;;11.13;6.75;;;12.10;53.80;;;;;;5012666;28;20498;-69
2021/03/01 09:45:57;;;;;;;9.60;6.40;;;12.20;53.70;;;;;;5012000;28;20026;-70
2021/03/01 09:48:24;;;;;;;11.55;6.45;;;12.20;53.50;;;;;;5012353;28;20057;-69
2021/03/01 09:50:51;;;;;;;8.40;5.95;;;12.30;53.20;;;;;;5012296;28;20053;-69
2021/03/01 09:53:17;;;;;;;10.77;6.32;;;12.30;53.20;;;;;;5011882;28;20081;-69
2021/03/01 09:55:45;;;;;;;9.55;6.95;;;12.40;53.00;;;;;;4994655;28;20451;-69
2021/03/01 09:58:39;;;;;;;11.05;7.28;;;12.50;52.90;;;;;;5011829;28;20033;-70
2021/03/01 10:01:12;;;;;;;9.55;6.50;;;12.50;52.90;;;;;;5012416;28;20060;-69
2021/03/01 10:03:43;;;;;;;10.80;7.00;;;12.60;52.70;;;;;;5011867;28;20022;-69
2021/03/01 10:06:10;;;;;;;9.38;6.25;;;12.60;52.60;;;;;;5011922;28;20109;-69
2021/03/01 10:08:36;;;;;;;11.45;6.57;;;12.60;52.60;;;;;;5011184;28;20029;-69
2021/03/01 10:11:03;;;;;;;9.63;6.45;;;12.70;52.40;;;;;;5009415;28;20445;-69
2021/03/01 10:13:34;;;;;;;9.70;5.82;;;12.80;52.40;;;;;;5011792;28;20045;-69
2021/03/01 10:16:07;;;;;;;9.13;6.32;;;12.90;52.00;;;;;;5011727;28;20026;-70
2021/03/01 10:18:33;;;;;;;;;;;12.80;51.70;;;;;;5012004;28;20029;-69
2021/03/01 10:21:07;;;;;;;10.43;6.32;;;12.90;52.90;;;;;;5012067;28;19953;-69
2021/03/01 10:23:39;;;;;;;9.15;6.00;;;13.00;51.70;;;;;;5011519;28;20406;-70
2021/03/01 10:26:14;;;;;;;;;;;13.00;51.40;;;;;;5011932;28;20017;-69
2021/03/01 10:28:42;;;;;;;9.68;5.95;;;13.00;51.90;;;;;;5011299;28;19913;-68
2021/03/01 10:31:13;;;;;;;9.13;6.00;;;13.00;51.50;;;;;;5011880;28;20026;-70
2021/03/01 10:33:51;;;;;;;8.93;6.50;;;13.00;51.20;;;;;;5006811;28;20041;-69
2021/03/01 10:36:17;;;;;;;7.85;5.10;;;13.10;50.90;;;;;;5005975;28;20101;-69
2021/03/01 10:38:55;;;;;;;9.15;5.68;;;13.20;50.90;;;;;;5007938;28;20022;-69
2021/03/01 10:41:22;;;;;;;8.13;5.53;;;13.10;50.20;;;;;;5011837;28;20037;-68
2021/03/01 10:44:07;;;;;;;10.38;6.07;;;13.00;49.70;;;;;;5011344;28;20030;-69
2021/03/01 10:46:32;;;;;;;7.65;5.30;;;12.90;49.80;;;;;;5029333;23;20045;-69
2021/03/01 10:49:00;;;;;;;10.25;6.18;;;13.00;50.20;;;;;;5015464;28;20030;-69
2021/03/01 10:51:26;;;;;;;9.88;5.90;;;13.00;50.30;;;;;;5014173;28;20350;-71
2021/03/01 10:53:51;;;;;;;7.63;5.55;;;13.00;50.00;;;;;;5015402;28;20036;-68
2021/03/01 10:56:17;;;;;;;9.38;5.38;;;13.00;49.90;;;;;;5015230;28;20040;-69
2021/03/01 10:58:43;;;;;;;8.38;5.35;;;13.00;49.90;;;;;;4997357;28;20053;-70
2021/03/01 11:01:09;;;;;;;10.15;5.50;;;13.00;50.10;;;;;;4995485;28;20032;-69
2021/03/01 11:03:34;;;;;;;7.93;5.18;;;12.90;49.50;;;;;;4995086;28;20022;-69
2021/03/01 11:06:00;;;;;;;7.28;5.10;;;12.80;49.30;;;;;;4987763;28;20025;-68
2021/03/01 11:08:26;;;;;;;7.10;5.05;;;12.80;49.60;;;;;;4994432;28;20386;-69
2021/03/01 11:10:52;;;;;;;7.18;4.70;;;12.60;49.40;;;;;;4989746;28;20084;-69
2021/03/01 11:13:18;;;;;;;8.15;5.03;;;12.60;49.60;;;;;;4995496;28;20080;-69
2021/03/01 11:15:43;;;;;;;7.63;5.55;;;12.60;49.70;;;;;;4979560;28;20030;-70
2021/03/01 11:18:09;;;;;;;6.82;4.65;;;12.60;49.60;;;;;;4976032;28;20031;-69
2021/03/01 11:20:35;;;;;;;8.60;5.00;;;12.60;49.20;;;;;;4989186;28;20025;-70
2021/03/01 11:23:02;;;;;;;8.05;4.53;;;12.60;49.00;;;;;;4995195;28;20383;-70
2021/03/01 11:25:27;;;;;;;7.47;5.22;;;12.60;49.10;;;;;;4983098;28;20026;-71
2021/03/01 11:27:53;;;;;;;7.18;4.72;;;12.60;49.00;;;;;;4983902;28;20105;-71
2021/03/01 11:30:19;;;;;;;6.63;4.45;;;12.70;48.30;;;;;;4995559;28;20121;-69
2021/03/01 11:32:45;;;;;;;9.68;4.55;;;12.80;48.30;;;;;;5006495;28;20023;-70
2021/03/01 11:35:11;;;;;;;6.43;4.50;;;12.90;48.00;;;;;;4994147;28;20397;-69
2021/03/01 11:37:37;;;;;;;8.45;4.68;;;13.10;47.80;;;;;;4989291;28;20110;-69
2021/03/01 11:40:03;;;;;;;7.90;4.55;;;13.20;46.90;;;;;;4987402;28;20433;-70
2021/03/01 11:42:28;;;;;;;10.90;5.45;;;13.20;46.80;;;;;;4994230;28;20030;-69
2021/03/01 11:44:54;;;;;;;6.05;4.50;;;13.30;46.70;;;;;;4995101;28;20049;-69
2021/03/01 11:47:23;;;;;;;8.00;5.03;;;13.40;46.90;;;;;;4993286;28;20056;-69
2021/03/01 11:49:48;;;;;;;6.43;4.43;;;13.50;46.90;;;;;;4995124;28;20037;-69
2021/03/01 11:52:14;;;;;;;5.80;3.95;;;13.60;46.20;;;;;;4980893;28;20129;-69
2021/03/01 11:54:40;;;;;;;5.32;4.00;;;13.70;45.90;;;;;;4975283;28;20041;-70
2021/03/01 11:57:05;;;;;;;6.05;4.20;;;13.70;45.90;;;;;;4986581;28;20112;-68
2021/03/01 11:59:31;;;;;;;8.32;4.22;;;13.80;46.10;;;;;;4995078;28;20025;-70
2021/03/01 12:01:56;;;;;;;12.43;4.60;;;13.90;45.70;;;;;;4985001;28;20056;-68
2021/03/01 12:04:22;;;;;;;7.57;3.92;;;14.00;45.70;;;;;;4985523;28;20048;-69
2021/03/01 12:06:48;;;;;;;11.15;4.43;;;14.10;45.80;;;;;;4986072;28;20451;-69
2021/03/01 12:09:13;;;;;;;8.50;4.43;;;14.30;45.70;;;;;;4981545;28;20022;-69
2021/03/01 12:11:39;;;;;;;7.25;3.92;;;14.30;45.40;;;;;;4983507;28;20025;-69
2021/03/01 12:14:05;;;;;;;13.13;5.03;;;14.40;45.40;;;;;;4994964;28;20022;-69
2021/03/01 12:16:30;;;;;;;8.48;4.47;;;14.40;45.20;;;;;;4987491;28;20046;-71
2021/03/01 12:18:56;;;;;;;7.82;5.05;;;14.50;45.30;;;;;;4975514;28;20641;-69
2021/03/01 12:21:21;;;;;;;6.28;4.57;;;14.50;45.10;;;;;;4981673;28;20513;-69
2021/03/01 12:23:47;;;;;;;7.03;4.75;;;14.60;45.10;;;;;;4994632;28;20033;-70
2021/03/01 12:26:13;;;;;;;7.78;4.72;;;14.70;44.90;;;;;;4988277;28;20023;-69
2021/03/01 12:28:38;;;;;;;6.75;4.43;;;14.70;45.20;;;;;;4975229;28;20700;-70
2021/03/01 12:31:04;;;;;;;6.90;4.32;;;14.90;45.30;;;;;;4985178;28;20561;-69
2021/03/01 12:33:30;;;;;;;5.80;4.18;;;15.00;44.80;;;;;;4994092;28;20057;-70
2021/03/01 12:35:55;;;;;;;6.03;4.18;;;15.00;44.70;;;;;;4993274;28;20077;-70
2021/03/01 12:38:21;;;;;;;7.35;4.10;;;15.10;44.70;;;;;;4987799;28;20461;-72
2021/03/01 12:40:46;;;;;;;4.75;3.58;;;15.20;44.50;;;;;;4986459;28;20037;-69
2021/03/01 12:43:12;;;;;;;8.45;4.20;;;15.20;44.40;;;;;;4985816;28;20022;-68
2021/03/01 12:45:38;;;;;;;6.22;4.07;;;15.30;44.50;;;;;;4977747;28;20030;-68
2021/03/01 12:48:04;;;;;;;7.63;4.20;;;15.40;44.40;;;;;;4979162;28;20030;-69
2021/03/01 12:50:30;;;;;;;4.70;3.80;;;15.50;44.50;;;;;;5010509;28;20030;-69